sensor_id;sensor_type;location;lat;lon;timestamp;pressure;altitude;pressure_sealevel;temperature;humidity
21588;BME280;10956;48.878;13.316;2022-11-20T00:01:12;93538.00;;;2.65;100.00
21588;BME280;10956;48.878;13.316;2022-11-20T00:03:38;93529.75;;;2.68;100.00
21588;BME280;10956;48.878;13.316;2022-11-20T00:06:06;93523.50;;;2.69;100.00
21588;BME280;10956;48.878;13.316;2022-11-20T00:08:33;93534.38;;;2.66;100.00
21588;BME280;10956;48.878;13.316;2022-11-20T00:11:06;93526.03;;;2.64;100.00
21588;BME280;10956;48.878;13.316;2022-11-20T00:13:32;93524.22;;;2.65;100.00
21588;BME280;10956;48.878;13.316;2022-11-20T00:15:59;93527.50;;;2.60;100.00
21588;BME280;10956;48.878;13.316;2022-11-20T00:18:25;93532.63;;;2.55;100.00
21588;BME280;10956;48.878;13.316;2022-11-20T00:20:51;93527.78;;;2.47;100.00
21588;BME280;10956;48.878;13.316;2022-11-20T00:23:16;93528.34;;;2.49;100.00
21588;BME280;10956;48.878;13.316;2022-11-20T00:25:41;93535.69;;;2.52;100.00
21588;BME280;10956;48.878;13.316;2022-11-20T00:28:07;93526.31;;;2.51;100.00
21588;BME280;10956;48.878;13.316;2022-11-20T00:30:32;93537.50;;;2.51;100.00
21588;BME280;10956;48.878;13.316;2022-11-20T00:32:57;93529.94;;;2.50;100.00
21588;BME280;10956;48.878;13.316;2022-11-20T00:35:23;93536.72;;;2.51;100.00
21588;BME280;10956;48.878;13.316;2022-11-20T00:37:48;93537.16;;;2.48;100.00
21588;BME280;10956;48.878;13.316;2022-11-20T00:40:14;93535.13;;;2.50;100.00
21588;BME280;10956;48.878;13.316;2022-11-20T00:42:39;93543.50;;;2.52;100.00
21588;BME280;10956;48.878;13.316;2022-11-20T00:45:05;93541.78;;;2.57;100.00
21588;BME280;10956;48.878;13.316;2022-11-20T00:47:30;93546.09;;;2.52;100.00
21588;BME280;10956;48.878;13.316;2022-11-20T00:49:56;93544.28;;;2.52;100.00
21588;BME280;10956;48.878;13.316;2022-11-20T00:52:21;93544.28;;;2.52;100.00
21588;BME280;10956;48.878;13.316;2022-11-20T00:54:47;93551.38;;;2.57;100.00
21588;BME280;10956;48.878;13.316;2022-11-20T00:57:12;93549.34;;;2.59;100.00
21588;BME280;10956;48.878;13.316;2022-11-20T00:59:37;93547.44;;;2.54;100.00
21588;BME280;10956;48.878;13.316;2022-11-20T01:02:03;93551.84;;;2.54;100.00
21588;BME280;10956;48.878;13.316;2022-11-20T01:04:28;93543.56;;;2.57;100.00
21588;BME280;10956;48.878;13.316;2022-11-20T01:06:54;93546.41;;;2.55;100.00
21588;BME280;10956;48.878;13.316;2022-11-20T01:09:19;93545.63;;;2.55;100.00
21588;BME280;10956;48.878;13.316;2022-11-20T01:11:45;93546.66;;;2.54;100.00
21588;BME280;10956;48.878;13.316;2022-11-20T01:14:13;93553.88;;;2.52;100.00
21588;BME280;10956;48.878;13.316;2022-11-20T01:16:45;93557.97;;;2.48;100.00
21588;BME280;10956;48.878;13.316;2022-11-20T01:19:13;93551.97;;;2.47;100.00
21588;BME280;10956;48.878;13.316;2022-11-20T01:21:41;93556.94;;;2.49;100.00
21588;BME280;10956;48.878;13.316;2022-11-20T01:24:10;93559.56;;;2.49;100.00
21588;BME280;10956;48.878;13.316;2022-11-20T01:26:38;93554.13;;;2.50;100.00
21588;BME280;10956;48.878;13.316;2022-11-20T01:29:04;93558.44;;;2.45;100.00
21588;BME280;10956;48.878;13.316;2022-11-20T01:31:35;93551.75;;;2.49;100.00
21588;BME280;10956;48.878;13.316;2022-11-20T01:34:12;93552.06;;;2.52;100.00
21588;BME280;10956;48.878;13.316;2022-11-20T01:36:39;93550.72;;;2.50;100.00
21588;BME280;10956;48.878;13.316;2022-11-20T01:39:07;93553.88;;;2.52;100.00
21588;BME280;10956;48.878;13.316;2022-11-20T01:41:34;93551.53;;;2.50;100.00
21588;BME280;10956;48.878;13.316;2022-11-20T01:44:55;93557.63;;;2.44;100.00
21588;BME280;10956;48.878;13.316;2022-11-20T01:47:31;93555.03;;;2.44;100.00
21588;BME280;10956;48.878;13.316;2022-11-20T01:50:15;93555.28;;;2.43;100.00
21588;BME280;10956;48.878;13.316;2022-11-20T01:53:04;93551.78;;;2.37;100.00
21588;BME280;10956;48.878;13.316;2022-11-20T01:55:32;93550.06;;;2.43;100.00
21588;BME280;10956;48.878;13.316;2022-11-20T01:58:00;93537.16;;;2.48;100.00
21588;BME280;10956;48.878;13.316;2022-11-20T02:00:26;93534.34;;;2.49;100.00
21588;BME280;10956;48.878;13.316;2022-11-20T02:02:57;93549.59;;;2.46;100.00
21588;BME280;10956;48.878;13.316;2022-11-20T02:05:29;93556.38;;;2.47;100.00
21588;BME280;10956;48.878;13.316;2022-11-20T02:07:58;93548.03;;;2.45;100.00
21588;BME280;10956;48.878;13.316;2022-11-20T02:10:25;93544.41;;;2.46;100.00
21588;BME280;10956;48.878;13.316;2022-11-20T02:12:52;93549.59;;;2.46;100.00
21588;BME280;10956;48.878;13.316;2022-11-20T02:15:36;93546.44;;;2.44;100.00
21588;BME280;10956;48.878;13.316;2022-11-20T02:18:02;93547.56;;;2.48;100.00
21588;BME280;10956;48.878;13.316;2022-11-20T02:20:28;93550.16;;;2.48;100.00
21588;BME280;10956;48.878;13.316;2022-11-20T02:23:05;93551.19;;;2.47;100.00
21588;BME280;10956;48.878;13.316;2022-11-20T02:25:33;93554.34;;;2.49;100.00
21588;BME280;10956;48.878;13.316;2022-11-20T02:28:00;93556.63;;;2.45;100.00
21588;BME280;10956;48.878;13.316;2022-11-20T02:30:26;93551.66;;;2.44;100.00
21588;BME280;10956;48.878;13.316;2022-11-20T02:32:51;93558.91;;;2.42;100.00
21588;BME280;10956;48.878;13.316;2022-11-20T02:37:51;93547.00;;;2.46;100.00
21588;BME280;10956;48.878;13.316;2022-11-20T02:40:18;93547.56;;;2.48;100.00
21588;BME280;10956;48.878;13.316;2022-11-20T02:42:53;93554.34;;;2.49;100.00
21588;BME280;10956;48.878;13.316;2022-11-20T02:45:19;93549.25;;;2.54;100.00
21588;BME280;10956;48.878;13.316;2022-11-20T02:47:44;93551.38;;;2.57;100.00
21588;BME280;10956;48.878;13.316;2022-11-20T02:50:11;93549.34;;;2.59;100.00
21588;BME280;10956;48.878;13.316;2022-11-20T02:52:36;93552.50;;;2.61;100.00
21588;BME280;10956;48.878;13.316;2022-11-20T02:55:02;93552.63;;;2.54;100.00
21588;BME280;10956;48.878;13.316;2022-11-20T02:57:28;93553.88;;;2.52;100.00
21588;BME280;10956;48.878;13.316;2022-11-20T02:59:53;93553.75;;;2.58;100.00
21588;BME280;10956;48.878;13.316;2022-11-20T03:02:19;93554.53;;;2.59;100.00
21588;BME280;10956;48.878;13.316;2022-11-20T03:04:44;93559.75;;;2.59;100.00
21588;BME280;10956;48.878;13.316;2022-11-20T03:07:10;93552.41;;;2.56;100.00
21588;BME280;10956;48.878;13.316;2022-11-20T03:09:35;93553.31;;;2.50;100.00
21588;BME280;10956;48.878;13.316;2022-11-20T03:12:01;93555.38;;;2.48;100.00
21588;BME280;10956;48.878;13.316;2022-11-20T03:14:26;93553.31;;;2.50;100.00
21588;BME280;10956;48.878;13.316;2022-11-20T03:16:52;93561.22;;;2.55;100.00
21588;BME280;10956;48.878;13.316;2022-11-20T03:19:17;93552.72;;;2.59;100.00
21588;BME280;10956;48.878;13.316;2022-11-20T03:21:43;93556.13;;;2.60;100.00
21588;BME280;10956;48.878;13.316;2022-11-20T03:24:08;93554.06;;;2.62;100.00
21588;BME280;10956;48.878;13.316;2022-11-20T03:26:34;93545.25;;;2.63;100.00
21588;BME280;10956;48.878;13.316;2022-11-20T03:29:01;93539.25;;;2.63;100.00
21588;BME280;10956;48.878;13.316;2022-11-20T03:31:37;93539.50;;;2.61;100.00
21588;BME280;10956;48.878;13.316;2022-11-20T03:34:03;93537.34;;;2.58;100.00
21588;BME280;10956;48.878;13.316;2022-11-20T03:36:30;93543.34;;;2.58;100.00
21588;BME280;10956;48.878;13.316;2022-11-20T03:38:56;93542.00;;;2.56;100.00
21588;BME280;10956;48.878;13.316;2022-11-20T03:41:30;93547.53;;;2.59;100.00
21588;BME280;10956;48.878;13.316;2022-11-20T03:44:01;93553.53;;;2.60;100.00
21588;BME280;10956;48.878;13.316;2022-11-20T03:46:27;93541.91;;;2.51;100.00
21588;BME280;10956;48.878;13.316;2022-11-20T03:48:53;93541.81;;;2.46;100.00
21588;BME280;10956;48.878;13.316;2022-11-20T03:51:20;93556.94;;;2.49;100.00
21588;BME280;10956;48.878;13.316;2022-11-20T03:53:47;93548.69;;;2.52;100.00
21588;BME280;10956;48.878;13.316;2022-11-20T03:56:15;93555.00;;;2.56;100.00
21588;BME280;10956;48.878;13.316;2022-11-20T03:58:41;93543.56;;;2.57;100.00
21588;BME280;10956;48.878;13.316;2022-11-20T04:01:11;93554.06;;;2.62;100.00
21588;BME280;10956;48.878;13.316;2022-11-20T04:03:38;93556.13;;;2.60;100.00
21588;BME280;10956;48.878;13.316;2022-11-20T04:06:22;93556.91;;;2.61;100.00
21588;BME280;10956;48.878;13.316;2022-11-20T04:08:48;93550.91;;;2.60;100.00
21588;BME280;10956;48.878;13.316;2022-11-20T04:11:23;93553.75;;;2.58;100.00
21588;BME280;10956;48.878;13.316;2022-11-20T04:13:54;93554.31;;;2.61;100.00
21588;BME280;10956;48.878;13.316;2022-11-20T04:16:21;93555.34;;;2.59;100.00
21588;BME280;10956;48.878;13.316;2022-11-20T04:18:46;93554.06;;;2.62;100.00
21588;BME280;10956;48.878;13.316;2022-11-20T04:21:12;93554.31;;;2.61;100.00
21588;BME280;10956;48.878;13.316;2022-11-20T04:23:38;93548.88;;;2.62;100.00
21588;BME280;10956;48.878;13.316;2022-11-20T04:26:08;93549.34;;;2.59;100.00
21588;BME280;10956;48.878;13.316;2022-11-20T04:28:35;93548.09;;;2.62;100.00
21588;BME280;10956;48.878;13.316;2022-11-20T04:31:02;93544.59;;;2.56;100.00
21588;BME280;10956;48.878;13.316;2022-11-20T04:33:28;93545.38;;;2.56;100.00
21588;BME280;10956;48.878;13.316;2022-11-20T04:35:53;93542.22;;;2.54;100.00
21588;BME280;10956;48.878;13.316;2022-11-20T04:38:18;93543.50;;;2.52;100.00
21588;BME280;10956;48.878;13.316;2022-11-20T04:40:44;93539.88;;;2.53;100.00
21588;BME280;10956;48.878;13.316;2022-11-20T04:43:09;93537.81;;;2.55;100.00
21588;BME280;10956;48.878;13.316;2022-11-20T04:45:34;93534.66;;;2.53;100.00
21588;BME280;10956;48.878;13.316;2022-11-20T04:48:00;93534.66;;;2.53;100.00
21588;BME280;10956;48.878;13.316;2022-11-20T04:50:25;93529.47;;;2.53;100.00
21588;BME280;10956;48.878;13.316;2022-11-20T04:52:51;93542.56;;;2.58;100.00
21588;BME280;10956;48.878;13.316;2022-11-20T04:55:16;93534.19;;;2.56;100.00
21588;BME280;10956;48.878;13.316;2022-11-20T04:57:41;93539.41;;;2.56;100.00
21588;BME280;10956;48.878;13.316;2022-11-20T05:00:07;93543.56;;;2.57;100.00
21588;BME280;10956;48.878;13.316;2022-11-20T05:02:33;93542.00;;;2.56;100.00
21588;BME280;10956;48.878;13.316;2022-11-20T05:04:58;93542.56;;;2.58;100.00
21588;BME280;10956;48.878;13.316;2022-11-20T05:07:24;93539.97;;;2.58;100.00
21588;BME280;10956;48.878;13.316;2022-11-20T05:09:49;93542.56;;;2.58;100.00
21588;BME280;10956;48.878;13.316;2022-11-20T05:12:14;93540.97;;;2.57;100.00
21588;BME280;10956;48.878;13.316;2022-11-20T05:14:40;93547.53;;;2.59;100.00
21588;BME280;10956;48.878;13.316;2022-11-20T05:17:05;93546.66;;;2.54;100.00
21588;BME280;10956;48.878;13.316;2022-11-20T05:19:31;93547.56;;;2.48;100.00
21588;BME280;10956;48.878;13.316;2022-11-20T05:21:56;93554.34;;;2.49;100.00
21588;BME280;10956;48.878;13.316;2022-11-20T05:24:22;93558.75;;;2.48;100.00
21588;BME280;10956;48.878;13.316;2022-11-20T05:26:47;93559.09;;;2.52;100.00
21588;BME280;10956;48.878;13.316;2022-11-20T05:29:12;93565.41;;;2.56;100.00
21588;BME280;10956;48.878;13.316;2022-11-20T05:31:39;93559.19;;;2.57;100.00
21588;BME280;10956;48.878;13.316;2022-11-20T05:34:05;93561.00;;;2.56;100.00
21588;BME280;10956;48.878;13.316;2022-11-20T05:36:31;93565.41;;;2.56;100.00
21588;BME280;10956;48.878;13.316;2022-11-20T05:38:57;93562.56;;;2.57;100.00
21588;BME280;10956;48.878;13.316;2022-11-20T05:41:22;93558.72;;;2.60;100.00
21588;BME280;10956;48.878;13.316;2022-11-20T05:43:48;93554.53;;;2.59;100.00
21588;BME280;10956;48.878;13.316;2022-11-20T05:46:16;93560.84;;;2.63;100.00
21588;BME280;10956;48.878;13.316;2022-11-20T05:48:43;93548.41;;;2.65;100.00
21588;BME280;10956;48.878;13.316;2022-11-20T05:51:11;93550.56;;;2.68;100.00
21588;BME280;10956;48.878;13.316;2022-11-20T05:53:37;93551.09;;;2.70;100.00
21588;BME280;10956;48.878;13.316;2022-11-20T05:56:13;93556.31;;;2.70;100.00
21588;BME280;10956;48.878;13.316;2022-11-20T05:58:40;93551.91;;;2.71;100.00
21588;BME280;10956;48.878;13.316;2022-11-20T06:01:09;93556.44;;;2.64;100.00
21588;BME280;10956;48.878;13.316;2022-11-20T06:03:35;93557.25;;;2.64;100.00
21588;BME280;10956;48.878;13.316;2022-11-20T06:06:01;93550.47;;;2.63;100.00
21588;BME280;10956;48.878;13.316;2022-11-20T06:08:27;93552.50;;;2.61;100.00
21588;BME280;10956;48.878;13.316;2022-11-20T06:10:53;93550.91;;;2.60;100.00
21588;BME280;10956;48.878;13.316;2022-11-20T06:13:18;93551.72;;;2.61;100.00
21588;BME280;10956;48.878;13.316;2022-11-20T06:15:53;93556.13;;;2.60;100.00
21588;BME280;10956;48.878;13.316;2022-11-20T06:18:19;93554.88;;;2.63;100.00
21588;BME280;10956;48.878;13.316;2022-11-20T06:20:45;93546.84;;;2.64;100.00
21588;BME280;10956;48.878;13.316;2022-11-20T06:23:12;93556.78;;;2.67;100.00
21588;BME280;10956;48.878;13.316;2022-11-20T06:25:41;93558.13;;;2.70;100.00
21588;BME280;10956;48.878;13.316;2022-11-20T06:28:07;93561.75;;;2.69;100.00
21588;BME280;10956;48.878;13.316;2022-11-20T06:30:34;93561.50;;;2.70;100.00
21588;BME280;10956;48.878;13.316;2022-11-20T06:33:00;93570.19;;;2.76;100.00
21588;BME280;10956;48.878;13.316;2022-11-20T06:35:26;93575.06;;;2.72;100.00
21588;BME280;10956;48.878;13.316;2022-11-20T06:37:51;93580.28;;;2.72;100.00
21588;BME280;10956;48.878;13.316;2022-11-20T06:40:16;93575.06;;;2.72;100.00
21588;BME280;10956;48.878;13.316;2022-11-20T06:42:42;93569.88;;;2.72;100.00
21588;BME280;10956;48.878;13.316;2022-11-20T06:45:08;93576.34;;;2.70;100.00
21588;BME280;10956;48.878;13.316;2022-11-20T06:47:33;93579.94;;;2.69;100.00
21588;BME280;10956;48.878;13.316;2022-11-20T06:49:59;93584.84;;;2.65;100.00
21588;BME280;10956;48.878;13.316;2022-11-20T06:52:24;93585.28;;;2.62;100.00
21588;BME280;10956;48.878;13.316;2022-11-20T06:54:49;93584.84;;;2.65;100.00
21588;BME280;10956;48.878;13.316;2022-11-20T06:57:15;93596.81;;;2.66;100.00
21588;BME280;10956;48.878;13.316;2022-11-20T06:59:40;93599.97;;;2.68;100.00
21588;BME280;10956;48.878;13.316;2022-11-20T07:02:09;93598.25;;;2.74;100.00
21588;BME280;10956;48.878;13.316;2022-11-20T07:04:35;93596.91;;;2.71;100.00
21588;BME280;10956;48.878;13.316;2022-11-20T07:07:01;93595.22;;;2.65;100.00
21588;BME280;10956;48.878;13.316;2022-11-20T07:09:26;93594.91;;;2.62;100.00
21588;BME280;10956;48.878;13.316;2022-11-20T07:11:51;93597.28;;;2.63;100.00
21588;BME280;10956;48.878;13.316;2022-11-20T07:14:17;93598.41;;;2.67;100.00
21588;BME280;10956;48.878;13.316;2022-11-20T07:16:42;93600.44;;;2.65;100.00
21588;BME280;10956;48.878;13.316;2022-11-20T07:19:08;93593.97;;;2.68;100.00
21588;BME280;10956;48.878;13.316;2022-11-20T07:21:33;93592.63;;;2.65;100.00
21588;BME280;10956;48.878;13.316;2022-11-20T07:23:58;93606.66;;;2.64;100.00
21588;BME280;10956;48.878;13.316;2022-11-20T07:26:24;93598.84;;;2.64;100.00
21588;BME280;10956;48.878;13.316;2022-11-20T07:28:49;93599.19;;;2.68;100.00
21588;BME280;10956;48.878;13.316;2022-11-20T07:31:15;93595.09;;;2.72;100.00
21588;BME280;10956;48.878;13.316;2022-11-20T07:33:40;93596.22;;;2.76;100.00
21588;BME280;10956;48.878;13.316;2022-11-20T07:36:05;93596.78;;;2.78;100.00
21588;BME280;10956;48.878;13.316;2022-11-20T07:38:31;93595.44;;;2.75;100.00
21588;BME280;10956;48.878;13.316;2022-11-20T07:40:57;93592.25;;;2.73;100.00
21588;BME280;10956;48.878;13.316;2022-11-20T07:43:23;93592.72;;;2.70;100.00
21588;BME280;10956;48.878;13.316;2022-11-20T07:45:49;93601.56;;;2.69;100.00
21588;BME280;10956;48.878;13.316;2022-11-20T07:48:14;93590.22;;;2.75;100.00
21588;BME280;10956;48.878;13.316;2022-11-20T07:50:40;93594.97;;;2.78;100.00
21588;BME280;10956;48.878;13.316;2022-11-20T07:53:05;93596.44;;;2.74;100.00
21588;BME280;10956;48.878;13.316;2022-11-20T07:55:31;93596.78;;;2.78;100.00
21588;BME280;10956;48.878;13.316;2022-11-20T07:57:57;93596.09;;;2.82;100.00
21588;BME280;10956;48.878;13.316;2022-11-20T08:00:24;93593.38;;;2.77;100.00
21588;BME280;10956;48.878;13.316;2022-11-20T08:02:50;93593.38;;;2.77;100.00
21588;BME280;10956;48.878;13.316;2022-11-20T08:05:15;93602.53;;;2.80;100.00
21588;BME280;10956;48.878;13.316;2022-11-20T08:07:42;93598.13;;;2.80;100.00
21588;BME280;10956;48.878;13.316;2022-11-20T08:10:11;93598.13;;;2.80;100.00
21588;BME280;10956;48.878;13.316;2022-11-20T08:12:50;93599.00;;;2.86;100.00
21588;BME280;10956;48.878;13.316;2022-11-20T08:15:35;93605.88;;;2.92;100.00
21588;BME280;10956;48.878;13.316;2022-11-20T08:18:09;93604.44;;;2.84;100.00
21588;BME280;10956;48.878;13.316;2022-11-20T08:20:35;93604.91;;;2.81;100.00
21588;BME280;10956;48.878;13.316;2022-11-20T08:23:03;93597.44;;;2.85;100.00
21588;BME280;10956;48.878;13.316;2022-11-20T08:25:30;93599.56;;;2.88;100.00
21588;BME280;10956;48.878;13.316;2022-11-20T08:28:00;93605.09;;;2.91;100.00
21588;BME280;10956;48.878;13.316;2022-11-20T08:30:26;93603.84;;;2.94;100.00
21588;BME280;10956;48.878;13.316;2022-11-20T08:32:52;93600.53;;;2.99;100.00
21588;BME280;10956;48.878;13.316;2022-11-20T08:35:17;93599.06;;;3.03;100.00
21588;BME280;10956;48.878;13.316;2022-11-20T08:37:46;93597.47;;;3.02;100.00
21588;BME280;10956;48.878;13.316;2022-11-20T08:40:12;93591.72;;;3.00;100.00
21588;BME280;10956;48.878;13.316;2022-11-20T08:42:46;93598.16;;;2.97;100.00
21588;BME280;10956;48.878;13.316;2022-11-20T08:45:11;93594.88;;;3.02;100.00
21588;BME280;10956;48.878;13.316;2022-11-20T08:47:36;93599.06;;;3.03;100.00
21588;BME280;10956;48.878;13.316;2022-11-20T08:50:03;93597.09;;;3.10;100.00
21588;BME280;10956;48.878;13.316;2022-11-20T08:52:29;93592.53;;;3.17;100.00
21588;BME280;10956;48.878;13.316;2022-11-20T08:54:54;93593.97;;;3.24;100.00
21588;BME280;10956;48.878;13.316;2022-11-20T08:57:19;93595.06;;;3.29;100.00
21588;BME280;10956;48.878;13.316;2022-11-20T08:59:45;93596.25;;;3.21;100.00
21588;BME280;10956;48.878;13.316;2022-11-20T09:02:10;93596.81;;;3.23;100.00
21588;BME280;10956;48.878;13.316;2022-11-20T09:04:37;93611.97;;;3.26;100.00
21588;BME280;10956;48.878;13.316;2022-11-20T09:07:02;93605.03;;;3.32;100.00
21588;BME280;10956;48.878;13.316;2022-11-20T09:09:28;93591.63;;;3.40;100.00
21588;BME280;10956;48.878;13.316;2022-11-20T09:11:53;93600.22;;;3.40;100.00
21588;BME280;10956;48.878;13.316;2022-11-20T09:14:19;93591.53;;;3.51;100.00
21588;BME280;10956;48.878;13.316;2022-11-20T09:16:45;93595.88;;;3.63;100.00
21588;BME280;10956;48.878;13.316;2022-11-20T09:19:11;93597.31;;;3.70;100.00
21588;BME280;10956;48.878;13.316;2022-11-20T09:21:36;93594.53;;;3.77;100.00
21588;BME280;10956;48.878;13.316;2022-11-20T09:24:02;93593.59;;;3.83;100.00
21588;BME280;10956;48.878;13.316;2022-11-20T09:26:28;93593.66;;;3.88;100.00
21588;BME280;10956;48.878;13.316;2022-11-20T09:28:54;93593.91;;;3.86;100.00
21588;BME280;10956;48.878;13.316;2022-11-20T09:31:24;93596.50;;;3.86;100.00
21588;BME280;10956;48.878;13.316;2022-11-20T09:33:51;93596.13;;;3.78;100.00
21588;BME280;10956;48.878;13.316;2022-11-20T09:36:17;93594.53;;;3.77;100.00
21588;BME280;10956;48.878;13.316;2022-11-20T09:38:44;93590.81;;;3.73;100.00
21588;BME280;10956;48.878;13.316;2022-11-20T09:44:32;93590.44;;;3.64;100.00
21588;BME280;10956;48.878;13.316;2022-11-20T09:52:43;93587.66;;;3.37;100.00
21588;BME280;10956;48.878;13.316;2022-11-20T09:55:14;93584.34;;;3.25;100.00
21588;BME280;10956;48.878;13.316;2022-11-20T09:57:43;93581.31;;;3.16;100.00
21588;BME280;10956;48.878;13.316;2022-11-20T10:00:12;93576.06;;;3.28;100.00
21588;BME280;10956;48.878;13.316;2022-11-20T10:03:01;93574.56;;;3.32;100.00
21588;BME280;10956;48.878;13.316;2022-11-20T10:05:44;93574.41;;;3.22;100.00
21588;BME280;10956;48.878;13.316;2022-11-20T10:08:22;93577.69;;;3.17;100.00
21588;BME280;10956;48.878;13.316;2022-11-20T10:10:54;93569.97;;;3.22;100.00
21588;BME280;10956;48.878;13.316;2022-11-20T10:30:13;93573.63;;;3.55;100.00
21588;BME280;10956;48.878;13.316;2022-11-20T10:32:42;93563.34;;;3.65;100.00
21588;BME280;10956;48.878;13.316;2022-11-20T10:35:21;93563.19;;;3.72;100.00
21588;BME280;10956;48.878;13.316;2022-11-20T10:37:59;93560.41;;;3.78;100.00
21588;BME280;10956;48.878;13.316;2022-11-20T10:40:38;93566.81;;;3.71;100.00
21588;BME280;10956;48.878;13.316;2022-11-20T10:43:15;93557.97;;;3.72;100.00
21588;BME280;10956;48.878;13.316;2022-11-20T10:45:55;93550.88;;;3.67;100.00
21588;BME280;10956;48.878;13.316;2022-11-20T10:48:24;93552.16;;;3.65;100.00
21588;BME280;10956;48.878;13.316;2022-11-20T10:51:03;93556.72;;;3.58;100.00
21588;BME280;10956;48.878;13.316;2022-11-20T10:54:18;93546.78;;;3.54;100.00
21588;BME280;10956;48.878;13.316;2022-11-20T10:56:52;93545.28;;;3.59;100.00
21588;BME280;10956;48.878;13.316;2022-11-20T11:01:57;93549.47;;;3.60;100.00
21588;BME280;10956;48.878;13.316;2022-11-20T11:07:12;93541.72;;;3.65;100.00
21588;BME280;10956;48.878;13.316;2022-11-20T11:09:43;93538.31;;;3.64;100.00
21588;BME280;10956;48.878;13.316;2022-11-20T11:12:09;93533.84;;;3.60;100.00
21588;BME280;10956;48.878;13.316;2022-11-20T11:14:45;93532.81;;;3.61;100.00
21588;BME280;10956;48.878;13.316;2022-11-20T11:17:22;93534.63;;;3.60;100.00
21588;BME280;10956;48.878;13.316;2022-11-20T11:20:04;93538.72;;;3.73;100.00
21588;BME280;10956;48.878;13.316;2022-11-20T11:22:31;93542.78;;;3.85;100.00
21588;BME280;10956;48.878;13.316;2022-11-20T11:24:57;93538.63;;;3.68;100.00
21588;BME280;10956;48.878;13.316;2022-11-20T11:27:22;93534.94;;;3.64;100.00
21588;BME280;10956;48.878;13.316;2022-11-20T11:29:48;93532.41;;;3.69;100.00
21588;BME280;10956;48.878;13.316;2022-11-20T11:32:21;93526.72;;;3.72;100.00
21588;BME280;10956;48.878;13.316;2022-11-20T11:35:06;93526.72;;;3.72;100.00
21588;BME280;10956;48.878;13.316;2022-11-20T11:37:36;93520.31;;;3.63;100.00
21588;BME280;10956;48.878;13.316;2022-11-20T11:40:04;93521.03;;;3.58;100.00
21588;BME280;10956;48.878;13.316;2022-11-20T11:42:30;93521.97;;;3.69;100.00
21588;BME280;10956;48.878;13.316;2022-11-20T11:44:58;93524.19;;;3.77;100.00
21588;BME280;10956;48.878;13.316;2022-11-20T11:47:32;93520.84;;;3.81;100.00
21588;BME280;10956;48.878;13.316;2022-11-20T11:55:09;93520.03;;;3.98;100.00
21588;BME280;10956;48.878;13.316;2022-11-20T11:57:43;93516.22;;;4.05;100.00
21588;BME280;10956;48.878;13.316;2022-11-20T12:05:28;93512.09;;;4.09;100.00
21588;BME280;10956;48.878;13.316;2022-11-20T12:08:27;93506.25;;;4.02;100.00
21588;BME280;10956;48.878;13.316;2022-11-20T12:13:58;93502.94;;;4.07;100.00
21588;BME280;10956;48.878;13.316;2022-11-20T12:16:32;93507.97;;;4.13;100.00
21588;BME280;10956;48.878;13.316;2022-11-20T12:19:00;93512.16;;;4.14;100.00
21588;BME280;10956;48.878;13.316;2022-11-20T12:21:34;93511.72;;;4.22;100.00
21588;BME280;10956;48.878;13.316;2022-11-20T12:35:34;93502.63;;;4.03;100.00
21588;BME280;10956;48.878;13.316;2022-11-20T12:38:17;93498.50;;;4.07;100.00
21588;BME280;10956;48.878;13.316;2022-11-20T12:40:50;93500.63;;;4.10;100.00
21588;BME280;10956;48.878;13.316;2022-11-20T12:43:23;93498.03;;;4.10;100.00
21588;BME280;10956;48.878;13.316;2022-11-20T12:46:29;93507.34;;;4.06;100.00
21588;BME280;10956;48.878;13.316;2022-11-20T12:54:32;93499.00;;;4.04;100.00
21588;BME280;10956;48.878;13.316;2022-11-20T13:05:18;93496.81;;;3.96;100.00
21588;BME280;10956;48.878;13.316;2022-11-20T13:07:45;93496.88;;;4.01;100.00
21588;BME280;10956;48.878;13.316;2022-11-20T13:19:04;93474.50;;;4.05;100.00
21588;BME280;10956;48.878;13.316;2022-11-20T13:21:40;93479.78;;;4.10;100.00
21588;BME280;10956;48.878;13.316;2022-11-20T13:24:18;93471.88;;;4.05;100.00
21588;BME280;10956;48.878;13.316;2022-11-20T13:26:46;93468.56;;;4.10;100.00
21588;BME280;10956;48.878;13.316;2022-11-20T13:29:17;93466.72;;;4.10;100.00
21588;BME280;10956;48.878;13.316;2022-11-20T13:31:44;93463.59;;;4.08;100.00
21588;BME280;10956;48.878;13.316;2022-11-20T13:34:24;93462.00;;;4.07;100.00
21588;BME280;10956;48.878;13.316;2022-11-20T13:36:55;93471.47;;;4.13;100.00
21588;BME280;10956;48.878;13.316;2022-11-20T13:39:35;93463.69;;;4.18;100.00
21588;BME280;10956;48.878;13.316;2022-11-20T13:44:43;93462.59;;;4.14;100.00
21588;BME280;10956;48.878;13.316;2022-11-20T13:47:24;93457.41;;;4.14;100.00
21588;BME280;10956;48.878;13.316;2022-11-20T13:49:52;93462.59;;;4.14;100.00
21588;BME280;10956;48.878;13.316;2022-11-20T13:55:35;93465.94;;;4.10;100.00
21588;BME280;10956;48.878;13.316;2022-11-20T13:58:28;93457.75;;;4.01;100.00
21588;BME280;10956;48.878;13.316;2022-11-20T14:01:05;93457.69;;;3.96;100.00
21588;BME280;10956;48.878;13.316;2022-11-20T14:03:33;93458.56;;;4.02;100.00
21588;BME280;10956;48.878;13.316;2022-11-20T14:06:05;93459.28;;;3.97;100.00
21588;BME280;10956;48.878;13.316;2022-11-20T14:08:37;93457.16;;;3.94;100.00
21588;BME280;10956;48.878;13.316;2022-11-20T14:11:15;93463.94;;;3.95;100.00
21588;BME280;10956;48.878;13.316;2022-11-20T14:14:17;93459.22;;;3.92;100.00
21588;BME280;10956;48.878;13.316;2022-11-20T14:16:44;93463.16;;;3.95;100.00
21588;BME280;10956;48.878;13.316;2022-11-20T14:21:44;93462.50;;;4.04;100.00
21588;BME280;10956;48.878;13.316;2022-11-20T14:24:11;93459.34;;;4.02;100.00
21588;BME280;10956;48.878;13.316;2022-11-20T14:26:41;93462.31;;;3.89;100.00
21588;BME280;10956;48.878;13.316;2022-11-20T14:29:28;93463.81;;;3.85;100.00